Time;durP1;ratioP1;P1;durP2;ratioP2;P2;SDS_P1;SDS_P2;PMS_P1;PMS_P2;Temp;Humidity;BMP_temperature;BMP_pressure;BME280_temperature;BME280_humidity;BME280_pressure;Samples;Min_cycle;Max_cycle;Signal;HPM_P1;HPM_P2
2021/09/16 00:02:00;;;;;;;18.08;13.90;;;;;;;18.72;55.58;100296.97;5050229;28;20032;-22
2021/09/16 00:04:26;;;;;;;20.40;14.43;;;;;;;18.44;57.98;100290.94;5068156;28;20032;-22
2021/09/16 00:06:51;;;;;;;21.27;14.48;;;;;;;18.40;57.92;100273.66;5068282;28;20020;-22
2021/09/16 00:09:17;;;;;;;22.00;13.27;;;;;;;18.70;56.57;100277.50;5068710;28;20036;-22
2021/09/16 00:11:42;;;;;;;19.90;13.05;;;;;;;18.78;56.79;100290.50;5068125;28;20327;-22
2021/09/16 00:14:08;;;;;;;19.50;13.55;;;;;;;18.78;56.85;100295.09;5068155;28;20048;-22
2021/09/16 00:16:33;;;;;;;20.52;13.90;;;;;;;18.47;57.79;100297.72;5068358;28;20504;-22
2021/09/16 00:18:59;;;;;;;19.25;14.15;;;;;;;18.59;57.08;100298.31;5068219;28;20036;-22
2021/09/16 00:21:24;;;;;;;21.35;14.77;;;;;;;18.36;56.49;100298.75;5050172;28;20036;-22
2021/09/16 00:23:50;;;;;;;21.80;15.20;;;;;;;18.44;57.04;100300.94;5067930;28;20478;-22
2021/09/16 00:26:15;;;;;;;22.65;15.27;;;;;;;18.37;57.33;100293.09;5071220;28;20106;-22
2021/09/16 00:28:40;;;;;;;23.63;15.90;;;;;;;18.33;57.97;100292.00;5071787;28;20040;-22
2021/09/16 00:31:06;;;;;;;23.67;15.98;;;;;;;18.42;57.96;100282.31;5053723;28;20016;-22
2021/09/16 00:33:32;;;;;;;20.52;14.38;;;;;;;18.19;58.00;100277.38;5053586;28;20428;-22
2021/09/16 00:35:57;;;;;;;21.55;15.82;;;;;;;18.60;56.75;100294.50;5071379;28;20476;-22
2021/09/16 00:38:23;;;;;;;20.45;15.27;;;;;;;18.62;56.59;100291.53;5053627;28;20060;-22
2021/09/16 00:40:48;;;;;;;22.13;15.02;;;;;;;18.23;56.51;100294.66;5086852;28;20035;-22
2021/09/16 00:43:14;;;;;;;22.10;14.70;;;;;;;18.40;56.67;100306.06;5071423;28;20040;-22
2021/09/16 00:45:39;;;;;;;17.80;14.40;;;;;;;18.38;55.75;100313.59;5071309;28;20040;-22
2021/09/16 00:48:05;;;;;;;28.30;17.40;;;;;;;18.17;56.30;100317.31;5071255;28;20032;-22
2021/09/16 00:50:30;;;;;;;21.25;14.82;;;;;;;18.53;55.78;100322.84;5053408;28;20059;-22
2021/09/16 00:52:56;;;;;;;22.35;14.77;;;;;;;18.37;57.08;100314.69;5053008;28;20547;-22
2021/09/16 00:55:22;;;;;;;22.88;14.15;;;;;;;18.32;57.31;100324.66;5036892;28;20029;-22
2021/09/16 00:57:51;;;;;;;17.50;12.98;;;;;;;18.49;56.28;100309.06;5070854;28;20043;-22
2021/09/16 01:00:17;;;;;;;14.93;12.23;;;;;;;18.79;55.68;100319.16;5071018;28;20028;-22
2021/09/16 01:02:43;;;;;;;20.63;12.38;;;;;;;18.57;56.01;100318.53;5070788;28;20408;-22
2021/09/16 01:05:09;;;;;;;17.05;12.15;;;;;;;18.45;55.75;100313.38;5072179;28;20020;-22
2021/09/16 01:07:37;;;;;;;14.23;12.10;;;;;;;18.13;56.48;100306.22;5052995;28;20027;-22
2021/09/16 01:10:04;;;;;;;17.17;12.20;;;;;;;18.13;57.92;100314.31;5070780;28;20024;-22
2021/09/16 01:12:29;;;;;;;16.10;12.75;;;;;;;17.91;58.14;100314.47;5071090;28;20036;-22
2021/09/16 01:14:54;;;;;;;16.23;12.30;;;;;;;17.75;58.17;100315.44;5072214;28;20040;-22
2021/09/16 01:17:20;;;;;;;17.05;13.40;;;;;;;17.60;58.43;100313.44;5053094;28;20112;-22
2021/09/16 01:19:46;;;;;;;22.10;13.52;;;;;;;17.48;59.18;100317.13;5052546;28;20020;-22
2021/09/16 01:22:19;;;;;;;18.48;14.10;;;;;;;17.55;59.04;100310.72;5070738;28;20443;-22
2021/09/16 01:24:44;;;;;;;19.05;14.07;;;;;;;17.30;59.70;100309.44;5053858;28;20178;-22
2021/09/16 01:27:10;;;;;;;18.40;14.77;;;;;;;16.79;61.48;100320.53;5070584;28;20509;-21
2021/09/16 01:29:35;;;;;;;16.45;13.35;;;;;;;16.58;61.47;100281.00;5070413;28;20031;-22
2021/09/16 01:32:03;;;;;;;18.63;14.20;;;;;;;17.26;59.82;100322.66;5070464;28;20036;-22
2021/09/16 01:34:28;;;;;;;20.73;14.52;;;;;;;17.22;59.19;100318.00;5070486;28;20052;-22
2021/09/16 01:36:53;;;;;;;20.63;13.70;;;;;;;17.40;59.80;100324.91;5052261;28;20469;-22
2021/09/16 01:39:19;;;;;;;21.98;13.85;;;;;;;16.85;61.83;100319.56;5052215;28;20029;-22
2021/09/16 01:41:45;;;;;;;17.88;14.95;;;;;;;17.34;59.30;100320.53;5069932;28;20468;-22
2021/09/16 01:44:10;;;;;;;17.58;13.70;;;;;;;17.13;59.72;100314.16;5052256;28;20025;-22
2021/09/16 01:46:36;;;;;;;17.63;13.80;;;;;;;16.97;59.79;100292.47;5069911;28;20044;-22
2021/09/16 01:49:03;;;;;;;21.90;14.60;;;;;;;17.44;58.38;100312.53;5070432;28;20028;-22
2021/09/16 01:51:29;;;;;;;20.65;14.65;;;;;;;17.54;58.20;100315.28;5052233;28;20729;-22
2021/09/16 01:53:54;;;;;;;19.15;14.25;;;;;;;16.83;60.67;100310.91;5048360;28;20726;-22
2021/09/16 01:56:20;;;;;;;19.15;13.93;;;;;;;16.67;61.31;100296.47;5050324;28;20028;-22
2021/09/16 01:58:45;;;;;;;22.83;15.45;;;;;;;16.65;60.60;100303.16;5049651;28;20033;-22
2021/09/16 02:01:11;;;;;;;20.55;15.52;;;;;;;16.28;61.17;100303.81;5048457;28;20029;-22
2021/09/16 02:03:36;;;;;;;22.25;16.17;;;;;;;16.62;59.58;100301.78;5049815;28;20033;-22
2021/09/16 02:06:02;;;;;;;24.25;16.15;;;;;;;16.50;62.18;100305.69;5048869;28;20079;-21
2021/09/16 02:08:27;;;;;;;22.10;15.15;;;;;;;16.31;61.58;100297.94;5049686;28;20044;-22
2021/09/16 02:10:53;;;;;;;23.70;16.17;;;;;;;16.36;61.90;100300.69;5049680;28;20021;-22
2021/09/16 02:13:19;;;;;;;25.60;16.23;;;;;;;16.62;61.16;100295.59;5049758;28;20128;-22
2021/09/16 02:15:44;;;;;;;20.20;14.75;;;;;;;15.87;63.43;100287.16;5049220;28;20025;-22
2021/09/16 02:18:10;;;;;;;18.52;15.85;;;;;;;15.78;63.85;100280.59;5049610;28;20048;-22
2021/09/16 02:20:35;;;;;;;24.73;16.48;;;;;;;15.50;64.65;100303.00;5049587;28;20032;-22
2021/09/16 02:23:01;;;;;;;17.90;13.73;;;;;;;14.73;66.11;100291.81;5049340;28;20107;-22
2021/09/16 02:25:26;;;;;;;20.42;14.77;;;;;;;14.34;67.33;100298.78;5049631;28;20029;-22
2021/09/16 02:27:52;;;;;;;21.23;15.40;;;;;;;14.39;68.12;100299.69;5049840;28;20029;-22
2021/09/16 02:30:17;;;;;;;17.63;15.30;;;;;;;14.92;67.05;100291.59;5049320;28;20038;-22
2021/09/16 02:32:43;;;;;;;20.38;15.95;;;;;;;15.00;67.25;100299.25;5049397;28;20032;-22
2021/09/16 02:35:10;;;;;;;20.52;15.85;;;;;;;15.32;66.32;100306.75;5049271;28;20060;-22
2021/09/16 02:37:36;;;;;;;21.23;14.93;;;;;;;15.54;65.04;100294.19;5049113;28;20055;-22
2021/09/16 02:40:02;;;;;;;21.13;15.95;;;;;;;15.45;66.12;100301.06;5049210;28;20481;-21
2021/09/16 02:42:28;;;;;;;21.60;16.15;;;;;;;15.96;64.18;100296.44;5049040;28;20442;-22
2021/09/16 02:44:53;;;;;;;22.23;15.60;;;;;;;16.02;63.26;100300.81;5048991;28;20028;-22
2021/09/16 02:47:19;;;;;;;23.48;15.88;;;;;;;16.55;61.70;100281.50;5048515;28;20473;-22
2021/09/16 02:49:44;;;;;;;24.27;17.38;;;;;;;16.50;61.91;100295.72;5048806;28;20086;-21
2021/09/16 02:52:09;;;;;;;21.45;17.23;;;;;;;16.18;63.04;100301.00;5049063;28;20033;-22
2021/09/16 02:54:35;;;;;;;20.52;16.88;;;;;;;15.88;63.87;100299.56;5065287;28;20498;-22
2021/09/16 02:57:00;;;;;;;18.48;14.98;;;;;;;15.52;64.94;100280.19;5069034;28;20029;-22
2021/09/16 02:59:26;;;;;;;25.58;16.83;;;;;;;15.79;63.64;100307.25;5068840;28;20029;-22
2021/09/16 03:01:51;;;;;;;25.58;16.63;;;;;;;16.39;61.33;100289.44;5068894;28;20028;-22
2021/09/16 03:04:17;;;;;;;31.80;16.70;;;;;;;16.47;60.81;100302.44;5069165;28;20044;-21
2021/09/16 03:06:42;;;;;;;40.83;17.65;;;;;;;16.87;59.56;100312.03;5068894;28;20032;-22
2021/09/16 03:09:08;;;;;;;39.85;16.70;;;;;;;16.81;59.60;100306.84;5068889;28;20034;-21
2021/09/16 03:11:33;;;;;;;28.73;15.32;;;;;;;16.52;59.89;100309.75;5050824;28;20021;-22
2021/09/16 03:13:58;;;;;;;21.90;16.52;;;;;;;16.35;60.85;100312.53;5068393;28;20036;-22
2021/09/16 03:16:24;;;;;;;29.38;17.92;;;;;;;16.16;61.31;100295.88;5068972;28;20089;-22
2021/09/16 03:18:49;;;;;;;29.10;16.58;;;;;;;16.32;60.83;100313.00;5068964;28;20039;-22
2021/09/16 03:21:15;;;;;;;26.45;17.70;;;;;;;16.71;59.96;100312.91;5068510;28;20032;-22
2021/09/16 03:23:41;;;;;;;28.33;17.15;;;;;;;16.52;60.18;100306.25;5068443;28;20404;-22
2021/09/16 03:26:06;;;;;;;37.47;18.83;;;;;;;16.37;60.51;100299.63;5069037;28;20074;-22
2021/09/16 03:28:32;;;;;;;26.88;18.50;;;;;;;16.39;59.96;100277.84;5068490;28;20416;-21
2021/09/16 03:30:58;;;;;;;29.48;18.25;;;;;;;16.53;59.53;100284.47;5068670;28;20495;-22
2021/09/16 03:33:23;;;;;;;28.15;17.52;;;;;;;16.29;61.60;100302.78;5068605;28;20033;-22
2021/09/16 03:35:49;;;;;;;22.00;16.65;;;;;;;15.80;64.30;100300.78;5068388;28;20032;-21
2021/09/16 03:38:14;;;;;;;25.85;18.35;;;;;;;15.73;65.20;100296.63;5068581;28;20032;-21
2021/09/16 03:40:39;;;;;;;23.25;17.27;;;;;;;15.50;65.13;100285.00;5068702;28;20416;-22
2021/09/16 03:43:06;;;;;;;32.90;17.55;;;;;;;15.46;66.02;100306.16;5068324;28;20044;-21
2021/09/16 03:45:32;;;;;;;24.73;17.67;;;;;;;15.23;66.22;100319.78;5068461;28;20115;-21
2021/09/16 03:47:57;;;;;;;24.55;18.02;;;;;;;15.20;65.46;100315.72;5050460;28;20044;-21
2021/09/16 03:50:22;;;;;;;28.17;17.95;;;;;;;15.25;65.56;100317.66;5050499;28;20489;-22
2021/09/16 03:52:48;;;;;;;26.73;17.42;;;;;;;15.13;65.57;100301.59;5068641;28;20047;-22
2021/09/16 03:55:13;;;;;;;33.40;18.02;;;;;;;15.30;65.74;100323.09;5068355;28;20499;-21
2021/09/16 03:57:39;;;;;;;48.30;18.40;;;;;;;15.35;65.45;100323.19;5068045;28;20040;-22
2021/09/16 04:00:06;;;;;;;25.38;17.20;;;;;;;15.02;66.40;100307.88;5071531;28;20048;-22
2021/09/16 04:02:32;;;;;;;26.88;16.48;;;;;;;15.20;65.98;100315.72;5071943;28;20115;-22
2021/09/16 04:04:57;;;;;;;22.20;16.90;;;;;;;15.43;66.25;100332.72;5071986;28;20028;-21
2021/09/16 04:07:23;;;;;;;25.70;16.15;;;;;;;15.30;66.00;100330.34;5071982;28;20035;-22
2021/09/16 04:09:48;;;;;;;24.33;16.67;;;;;;;15.04;66.84;100330.75;5071767;28;20037;-22
2021/09/16 04:12:14;;;;;;;23.20;15.75;;;;;;;15.22;66.31;100312.75;5072110;28;20044;-21
2021/09/16 04:14:39;;;;;;;20.98;15.52;;;;;;;15.04;67.17;100328.06;5072373;28;20028;-22
2021/09/16 04:17:05;;;;;;;20.60;15.70;;;;;;;15.01;68.11;100330.41;5072090;28;20423;-22
2021/09/16 04:19:30;;;;;;;25.00;15.13;;;;;;;15.01;67.37;100343.84;5071919;28;20859;-21
2021/09/16 04:21:56;;;;;;;21.20;16.05;;;;;;;15.32;65.92;100328.25;5071342;28;20040;-21
2021/09/16 04:24:21;;;;;;;30.30;20.13;;;;;;;15.38;64.66;100340.69;5071633;28;20036;-22
2021/09/16 04:26:47;;;;;;;30.20;21.33;;;;;;;15.22;64.98;100345.84;5071542;28;20036;-22
2021/09/16 04:29:12;;;;;;;32.42;20.98;;;;;;;15.27;64.30;100320.91;5071715;28;20082;-22
2021/09/16 04:31:38;;;;;;;42.33;22.23;;;;;;;15.75;63.55;100349.13;5071402;28;20166;-22
2021/09/16 04:34:04;;;;;;;23.45;19.55;;;;;;;15.49;64.17;100339.81;5053710;28;20064;-21
2021/09/16 04:36:29;;;;;;;33.38;21.20;;;;;;;15.84;63.80;100346.81;5053646;28;20048;-22
2021/09/16 04:38:55;;;;;;;28.52;20.65;;;;;;;15.68;64.94;100346.56;5071395;28;20048;-22
2021/09/16 04:41:20;;;;;;;30.45;21.52;;;;;;;15.63;65.51;100341.13;5071249;28;20035;-22
2021/09/16 04:43:46;;;;;;;34.42;23.83;;;;;;;16.04;64.41;100341.75;5071050;28;20404;-23
2021/09/16 04:46:11;;;;;;;26.98;18.88;;;;;;;16.05;63.96;100335.28;5071198;28;20031;-21
2021/09/16 04:48:37;;;;;;;21.15;16.13;;;;;;;15.99;64.27;100354.28;5071173;28;20043;-21
2021/09/16 04:51:02;;;;;;;21.77;15.13;;;;;;;15.71;64.69;100331.00;5071244;28;20028;-21
2021/09/16 04:53:28;;;;;;;21.67;16.05;;;;;;;15.94;64.33;100344.28;5071312;28;20869;-21
2021/09/16 04:55:53;;;;;;;20.60;15.80;;;;;;;15.70;65.06;100342.81;5070840;28;20037;-22
2021/09/16 04:58:19;;;;;;;19.73;15.15;;;;;;;15.74;64.91;100341.31;5071320;28;20416;-22
2021/09/16 05:00:44;;;;;;;22.17;15.75;;;;;;;15.96;63.94;100326.03;5071399;28;20040;-22
2021/09/16 05:03:10;;;;;;;19.30;14.23;;;;;;;15.81;64.78;100347.31;5070924;28;20039;-22
2021/09/16 05:05:35;;;;;;;26.45;16.58;;;;;;;15.46;65.57;100324.16;5070952;28;20066;-21
2021/09/16 05:08:01;;;;;;;21.33;15.25;;;;;;;15.88;65.77;100347.97;5070641;28;20032;-21
2021/09/16 05:10:26;;;;;;;18.23;14.73;;;;;;;15.97;64.76;100341.09;5070320;28;20029;-21
2021/09/16 05:12:52;;;;;;;21.10;15.18;;;;;;;15.81;65.45;100358.06;5070803;28;20114;-22
2021/09/16 05:15:17;;;;;;;19.75;15.27;;;;;;;15.78;65.60;100329.81;5070855;28;20414;-22
2021/09/16 05:17:43;;;;;;;21.88;16.55;;;;;;;15.87;66.00;100351.69;5070541;28;20488;-22
2021/09/16 05:20:09;;;;;;;24.45;15.30;;;;;;;16.25;65.58;100342.81;5070587;28;20024;-22
2021/09/16 05:22:34;;;;;;;21.05;16.27;;;;;;;16.56;63.85;100331.59;5070483;28;20031;-22
2021/09/16 05:25:00;;;;;;;19.52;15.43;;;;;;;16.55;63.71;100332.66;5070659;28;20032;-21
2021/09/16 05:27:25;;;;;;;23.00;15.98;;;;;;;16.56;62.66;100318.16;5070700;28;20071;-21
2021/09/16 05:29:51;;;;;;;20.75;14.65;;;;;;;16.56;63.12;100327.03;5070299;28;20043;-22
2021/09/16 05:32:16;;;;;;;21.17;15.25;;;;;;;16.93;62.80;100341.72;5070478;28;20025;-22
2021/09/16 05:34:42;;;;;;;20.25;15.57;;;;;;;16.92;62.26;100330.16;5070219;28;20033;-22
2021/09/16 05:37:07;;;;;;;17.52;13.32;;;;;;;16.60;62.61;100316.56;5070434;28;20028;-22
2021/09/16 05:39:33;;;;;;;18.10;15.10;;;;;;;16.22;64.83;100345.19;5070278;28;20469;-22
2021/09/16 05:41:58;;;;;;;17.80;13.93;;;;;;;16.61;64.01;100339.72;5069848;28;20028;-22
2021/09/16 05:44:24;;;;;;;20.80;15.50;;;;;;;16.60;63.46;100348.88;5070231;28;20094;-22
2021/09/16 05:46:49;;;;;;;19.67;14.43;;;;;;;16.64;63.77;100350.00;5070050;28;20039;-22
2021/09/16 05:49:15;;;;;;;17.25;14.98;;;;;;;17.07;62.25;100353.72;5070081;28;20047;-22
2021/09/16 05:51:40;;;;;;;19.58;14.85;;;;;;;16.98;62.62;100352.53;5069793;28;20040;-21
2021/09/16 05:54:06;;;;;;;19.90;13.80;;;;;;;17.38;61.74;100360.19;5069705;28;20523;-22
2021/09/16 05:56:31;;;;;;;17.83;14.50;;;;;;;17.41;62.01;100353.50;5069832;28;20107;-22
2021/09/16 05:58:57;;;;;;;17.27;14.00;;;;;;;17.35;61.77;100327.56;5069881;28;20039;-22
2021/09/16 06:01:22;;;;;;;20.55;14.45;;;;;;;17.62;61.76;100344.47;5070218;28;20562;-22
2021/09/16 06:03:48;;;;;;;24.80;14.75;;;;;;;17.89;60.72;100349.00;5065845;28;20539;-22
2021/09/16 06:06:13;;;;;;;21.42;15.30;;;;;;;18.18;59.82;100340.53;5069592;28;20058;-22
2021/09/16 06:08:39;;;;;;;23.02;16.17;;;;;;;17.91;60.33;100344.16;5069739;28;20056;-22
2021/09/16 06:11:04;;;;;;;22.08;13.68;;;;;;;18.03;59.65;100333.16;5068648;28;20062;-22
2021/09/16 06:13:30;;;;;;;21.08;14.63;;;;;;;18.26;59.37;100342.72;5069485;28;20036;-22
2021/09/16 06:15:55;;;;;;;21.23;14.65;;;;;;;18.42;58.57;100341.72;5069333;28;20079;-22
2021/09/16 06:18:21;;;;;;;17.00;13.93;;;;;;;18.60;58.76;100343.13;5069204;28;20032;-22
2021/09/16 06:20:47;;;;;;;18.63;14.93;;;;;;;18.68;58.26;100349.91;5069341;28;20035;-22
2021/09/16 06:23:13;;;;;;;23.33;14.23;;;;;;;19.01;57.90;100351.34;5067981;28;20098;-23
2021/09/16 06:25:38;;;;;;;20.95;14.77;;;;;;;18.89;57.95;100350.00;5068905;28;20029;-22
2021/09/16 06:28:04;;;;;;;20.13;13.23;;;;;;;19.24;56.06;100335.69;5069411;28;20035;-22
2021/09/16 06:30:29;;;;;;;22.15;14.23;;;;;;;19.26;56.42;100339.75;5069411;28;20024;-23
2021/09/16 06:32:55;;;;;;;16.23;13.60;;;;;;;19.47;55.20;100345.16;5069163;28;20056;-23
2021/09/16 06:35:20;;;;;;;18.25;13.35;;;;;;;19.44;55.59;100351.13;5069315;28;20032;-23
2021/09/16 06:37:46;;;;;;;16.42;12.75;;;;;;;19.30;56.18;100334.63;5069074;28;20044;-23
2021/09/16 06:40:12;;;;;;;19.00;13.57;;;;;;;19.35;55.91;100337.34;5068847;28;20033;-22
2021/09/16 06:42:37;;;;;;;16.83;12.65;;;;;;;19.57;55.45;100347.84;5068996;28;20032;-23
2021/09/16 06:45:04;;;;;;;18.08;12.85;;;;;;;19.80;54.72;100345.72;5069225;28;20029;-22
2021/09/16 06:47:29;;;;;;;17.67;12.50;;;;;;;19.85;54.61;100348.41;5069055;28;20024;-22
2021/09/16 06:49:55;;;;;;;17.70;12.18;;;;;;;20.05;54.32;100352.97;5068820;28;20507;-22
2021/09/16 06:52:22;;;;;;;15.93;12.20;;;;;;;20.28;51.85;100341.50;5069199;28;20405;-22
2021/09/16 06:54:50;;;;;;;16.70;12.53;;;;;;;20.49;52.80;100349.53;5068636;28;20057;-22
2021/09/16 06:57:16;;;;;;;15.35;11.45;;;;;;;20.48;51.60;100346.03;5068910;28;20064;-22
2021/09/16 06:59:41;;;;;;;17.90;11.98;;;;;;;20.68;51.57;100363.31;5068915;28;20062;-22
2021/09/16 07:02:07;;;;;;;13.43;10.32;;;;;;;20.60;50.83;100344.94;5068844;28;20025;-22
2021/09/16 07:04:32;;;;;;;15.38;11.05;;;;;;;20.62;50.68;100331.91;5068848;28;20060;-22
2021/09/16 07:07:03;;;;;;;13.85;10.45;;;;;;;20.66;50.18;100328.34;5068874;28;20090;-22
2021/09/16 07:09:28;;;;;;;14.77;10.52;;;;;;;21.13;49.44;100353.28;5068653;28;20067;-22
2021/09/16 07:11:54;;;;;;;16.10;11.32;;;;;;;21.42;48.38;100366.91;5068651;28;20048;-22
2021/09/16 07:14:19;;;;;;;16.25;11.13;;;;;;;21.62;48.40;100365.94;5068898;28;20468;-22
2021/09/16 07:16:45;;;;;;;14.75;11.30;;;;;;;21.60;48.44;100356.47;5068630;28;20040;-22
2021/09/16 07:19:11;;;;;;;14.60;11.02;;;;;;;21.93;47.81;100360.19;5068867;28;20079;-22
2021/09/16 07:21:36;;;;;;;12.93;10.70;;;;;;;22.21;46.82;100365.88;5068531;28;20028;-22
2021/09/16 07:24:02;;;;;;;15.45;11.38;;;;;;;22.00;46.89;100355.22;5068571;28;20082;-23
2021/09/16 07:26:28;;;;;;;13.43;10.68;;;;;;;22.10;45.92;100367.09;5068658;28;20466;-22
2021/09/16 07:28:53;;;;;;;16.30;11.93;;;;;;;22.33;45.87;100368.22;5068765;28;20085;-22
2021/09/16 07:31:19;;;;;;;14.35;10.15;;;;;;;22.58;44.66;100351.59;5068563;28;20033;-22
2021/09/16 07:33:45;;;;;;;15.40;10.30;;;;;;;22.52;44.76;100365.56;5069558;28;20062;-22
2021/09/16 07:36:10;;;;;;;15.20;10.45;;;;;;;22.42;44.84;100356.41;5072669;28;20028;-22
2021/09/16 07:38:36;;;;;;;11.60;9.75;;;;;;;22.81;44.67;100374.38;5072476;28;20115;-22
2021/09/16 07:41:01;;;;;;;16.20;10.98;;;;;;;22.92;43.37;100360.63;5072836;28;20408;-22
2021/09/16 07:43:27;;;;;;;12.93;9.55;;;;;;;22.74;43.45;100371.22;5072473;28;20162;-22
2021/09/16 07:45:52;;;;;;;13.85;9.93;;;;;;;23.02;41.89;100368.69;5072036;28;20028;-22
2021/09/16 07:48:19;;;;;;;15.10;11.15;;;;;;;23.03;42.35;100364.88;5072546;28;20032;-22
2021/09/16 07:50:46;;;;;;;12.02;10.43;;;;;;;23.37;42.82;100369.22;5072601;28;20473;-22
2021/09/16 07:53:12;;;;;;;19.33;13.20;;;;;;;23.33;42.54;100354.59;5071731;28;20044;-23
2021/09/16 07:55:37;;;;;;;13.55;11.10;;;;;;;23.36;41.99;100357.53;5071969;28;20419;-22
2021/09/16 07:58:04;;;;;;;18.50;11.23;;;;;;;23.60;42.77;100371.03;5072193;28;20064;-22
2021/09/16 08:00:29;;;;;;;13.52;10.55;;;;;;;23.86;43.05;100367.88;5072057;28;20020;-22
2021/09/16 08:02:55;;;;;;;14.23;11.38;;;;;;;24.09;42.83;100362.53;5072190;28;20024;-22
2021/09/16 08:05:20;;;;;;;14.38;10.02;;;;;;;24.43;41.60;100357.47;5072174;28;20028;-22
2021/09/16 08:07:45;;;;;;;11.75;8.95;;;;;;;24.37;39.99;100349.72;5071861;28;20121;-22
2021/09/16 08:10:11;;;;;;;11.13;8.93;;;;;;;24.42;40.83;100353.16;5072152;28;20559;-22
2021/09/16 08:12:37;;;;;;;14.52;10.43;;;;;;;24.08;41.26;100333.69;5054413;28;20056;-22
2021/09/16 08:15:06;;;;;;;13.10;9.70;;;;;;;24.45;41.51;100354.44;5071851;28;20040;-22
2021/09/16 08:17:32;;;;;;;11.60;9.65;;;;;;;24.85;40.19;100347.34;5072125;28;20145;-22
2021/09/16 08:19:57;;;;;;;11.80;9.68;;;;;;;24.78;40.51;100346.94;5071721;28;20048;-22
2021/09/16 08:22:23;;;;;;;14.02;9.77;;;;;;;24.73;40.54;100352.53;5071630;28;20029;-22
2021/09/16 08:24:48;;;;;;;14.05;9.73;;;;;;;24.93;40.23;100325.88;5071695;28;20032;-22
2021/09/16 08:27:14;;;;;;;12.68;9.82;;;;;;;25.25;39.46;100327.59;5071786;28;20036;-22
2021/09/16 08:29:39;;;;;;;11.38;9.32;;;;;;;25.32;39.69;100319.78;5071271;28;20067;-22
2021/09/16 08:32:05;;;;;;;12.13;9.55;;;;;;;25.50;40.26;100328.91;5071609;28;20021;-22
2021/09/16 08:34:31;;;;;;;13.60;9.73;;;;;;;25.84;39.10;100344.63;5071498;28;20150;-22
2021/09/16 08:36:57;;;;;;;13.73;10.05;;;;;;;26.19;39.21;100339.31;5071425;28;20025;-22
2021/09/16 08:39:22;;;;;;;12.50;9.05;;;;;;;26.37;37.88;100351.09;5071491;28;20048;-22
2021/09/16 08:41:48;;;;;;;14.13;9.15;;;;;;;26.01;38.31;100338.47;5071290;28;20473;-22
2021/09/16 11:59:25;;;;;;;8.52;5.35;;;;;;;34.00;20.28;100140.88;4799117;28;8220493;-22
2021/09/16 12:01:55;;;;;;;7.43;5.13;;;;;;;34.80;19.75;100137.03;5070710;28;20036;-21
2021/09/16 12:04:37;;;;;;;7.68;5.07;;;;;;;34.93;19.42;100126.47;5070190;28;20056;-21
2021/09/16 12:07:03;;;;;;;7.80;4.90;;;;;;;34.69;18.60;100120.31;5055126;28;20491;-21
2021/09/16 12:09:28;;;;;;;7.25;5.00;;;;;;;35.13;19.07;100121.47;5070556;28;20115;-21
2021/09/16 12:11:59;;;;;;;8.63;5.05;;;;;;;35.28;20.11;100123.19;5070401;28;20415;-21
2021/09/16 12:14:25;;;;;;;9.80;4.95;;;;;;;35.53;18.61;100123.34;5070393;28;20025;-21
2021/09/16 12:16:50;;;;;;;7.65;4.57;;;;;;;35.31;17.27;100107.75;5070133;28;20024;-21
2021/09/16 12:19:16;;;;;;;8.32;5.22;;;;;;;35.32;18.13;100112.13;5035492;28;20557;-22
2021/09/16 12:21:43;;;;;;;9.30;4.78;;;;;;;35.04;18.53;100088.53;5051741;28;20032;-22
2021/09/16 12:24:09;;;;;;;;;;;;;;;35.16;18.51;100096.56;5070547;28;20056;-22
2021/09/16 12:26:42;;;;;;;6.90;4.90;;;;;;;34.63;18.91;100096.88;5070062;28;19909;-22
2021/09/16 12:29:12;;;;;;;7.88;4.22;;;;;;;34.38;19.00;100094.66;5052198;28;20036;-21
2021/09/16 12:31:45;;;;;;;7.20;4.70;;;;;;;34.85;18.21;100084.03;5052290;28;20032;-21
2021/09/16 12:34:20;;;;;;;7.85;4.32;;;;;;;35.32;19.00;100081.63;5069869;28;20032;-21
2021/09/16 12:36:49;;;;;;;6.47;4.53;;;;;;;35.24;18.22;100071.66;5069714;28;20031;-21
2021/09/16 12:39:15;;;;;;;6.55;4.13;;;;;;;34.45;18.19;100082.88;5070061;28;20021;-21
2021/09/16 12:41:57;;;;;;;7.30;4.30;;;;;;;34.90;18.17;100080.94;5052041;28;20443;-21
2021/09/16 12:44:23;;;;;;;5.70;4.63;;;;;;;35.32;17.51;100070.53;5069619;28;20035;-21
2021/09/16 12:47:04;;;;;;;9.95;4.50;;;;;;;35.46;17.26;100069.81;5069779;28;20025;-21
2021/09/16 12:49:33;;;;;;;8.82;5.28;;;;;;;35.97;16.94;100071.66;5069645;28;20555;-21
2021/09/16 12:52:18;;;;;;;8.40;4.07;;;;;;;35.86;16.90;100074.41;5050804;28;20035;-21
2021/09/16 12:54:54;;;;;;;6.05;4.03;;;;;;;34.68;18.02;100045.94;5069761;28;20071;-21
2021/09/16 12:57:21;;;;;;;7.30;3.97;;;;;;;35.06;16.71;100071.53;5069521;28;20040;-21
2021/09/16 12:59:54;;;;;;;5.47;3.83;;;;;;;35.13;16.77;100063.28;5069231;28;20064;-21
2021/09/16 13:02:21;;;;;;;9.80;3.70;;;;;;;35.00;16.82;100063.59;5069372;28;20158;-21
2021/09/16 13:04:56;;;;;;;5.97;3.72;;;;;;;35.69;17.08;100069.56;5069464;28;20071;-21
2021/09/16 13:07:23;;;;;;;7.22;5.28;;;;;;;35.98;15.70;100068.47;5069512;28;20055;-21
2021/09/16 13:09:48;;;;;;;5.80;3.92;;;;;;;35.92;16.57;100067.28;5069392;28;20039;-21
2021/09/16 13:12:15;;;;;;;7.55;4.10;;;;;;;36.25;16.30;100045.97;5069052;28;20036;-21
2021/09/16 13:14:41;;;;;;;5.95;4.13;;;;;;;36.47;15.08;100040.41;5069368;28;20040;-21
2021/09/16 13:17:07;;;;;;;10.60;4.43;;;;;;;35.73;17.11;100042.63;5069304;28;20025;-21
2021/09/16 13:19:32;;;;;;;7.15;4.20;;;;;;;35.52;16.55;100049.66;5051448;28;20029;-21
2021/09/16 13:21:58;;;;;;;7.03;3.95;;;;;;;35.83;15.35;100047.41;5069233;28;20074;-21
2021/09/16 13:24:23;;;;;;;8.05;3.92;;;;;;;35.65;15.89;100047.34;5068953;28;20044;-21
2021/09/16 13:26:49;;;;;;;8.57;4.40;;;;;;;35.53;15.92;100053.19;5069082;28;20090;-21
2021/09/16 13:29:14;;;;;;;7.10;4.35;;;;;;;36.25;16.06;100034.88;5068957;28;20055;-21
2021/09/16 13:31:40;;;;;;;8.10;4.47;;;;;;;37.01;15.57;100044.00;5068835;28;20060;-21
2021/09/16 13:34:05;;;;;;;7.65;4.25;;;;;;;37.02;14.64;100037.22;5069029;28;20067;-21
2021/09/16 13:36:31;;;;;;;6.78;4.38;;;;;;;37.08;15.08;100041.19;5068872;28;20028;-21
2021/09/16 13:38:58;;;;;;;8.48;4.13;;;;;;;37.81;15.17;100037.00;5069255;28;20079;-21
2021/09/16 13:41:24;;;;;;;6.95;3.85;;;;;;;37.95;14.57;100039.72;5068834;28;20036;-21
2021/09/16 13:43:49;;;;;;;6.43;4.07;;;;;;;37.86;14.63;100035.78;5069150;28;20406;-21
2021/09/16 13:46:15;;;;;;;5.65;3.90;;;;;;;37.44;15.16;100038.34;5051053;28;20064;-21
2021/09/16 13:48:40;;;;;;;5.63;4.25;;;;;;;37.49;14.82;100032.34;5068378;28;20099;-21
2021/09/16 13:51:06;;;;;;;6.35;3.88;;;;;;;37.15;14.81;100023.75;5067905;28;20060;-21
2021/09/16 13:53:31;;;;;;;6.13;4.30;;;;;;;38.04;14.35;100024.56;5068049;28;20087;-21
2021/09/16 13:55:57;;;;;;;7.80;4.82;;;;;;;38.09;14.98;100008.25;5068634;28;20064;-21
2021/09/16 13:58:23;;;;;;;8.57;4.55;;;;;;;38.10;15.74;100025.72;5068210;28;20472;-21
2021/09/16 14:00:50;;;;;;;6.55;4.43;;;;;;;38.12;14.28;100020.53;5068862;28;20029;-21
2021/09/16 14:03:15;;;;;;;8.35;4.80;;;;;;;38.34;13.78;100016.41;5068779;28;20043;-21
2021/09/16 14:05:41;;;;;;;7.30;4.28;;;;;;;38.54;13.86;100015.88;5068718;28;20033;-21
2021/09/16 14:08:07;;;;;;;7.15;4.30;;;;;;;39.17;13.02;100010.06;5068856;28;20028;-21
2021/09/16 14:10:32;;;;;;;9.77;4.53;;;;;;;38.89;13.06;100011.97;5068506;28;20048;-21
2021/09/16 14:12:57;;;;;;;5.30;4.15;;;;;;;38.98;13.92;100014.28;5068478;28;20047;-22
2021/09/16 14:15:23;;;;;;;9.40;4.50;;;;;;;39.28;13.54;100012.75;5068658;28;20102;-22
2021/09/16 14:17:49;;;;;;;6.35;4.35;;;;;;;39.28;12.94;100007.19;5068435;28;20564;-22
2021/09/16 14:20:14;;;;;;;5.70;4.30;;;;;;;39.65;14.12;100016.72;5068541;28;20443;-22
2021/09/16 14:22:40;;;;;;;29.33;5.70;;;;;;;40.28;12.60;100005.81;5068778;28;20036;-22
2021/09/16 14:25:06;;;;;;;7.47;4.68;;;;;;;39.52;12.91;100028.44;5068862;28;20736;-21